Arlington Municipal Airport


Codes: KGKY/
Name: Arlington Municipal Airport
City: Arlington
Country: United States
Elevation: 628 ft.
Wikipedia:

Photos at Arlington Municipal Airport


   Photos courtesy of SpottingLog. You can add your own sightings and photos by signing up for a free trial today.



No photos found.

Weather at Arlington Municipal Airport


Time (UTC)DescriptionTempratureWindCloud coverageVisibilityPressureHumidity
25-Jun-2024 15:00Clear Sky29°C11 mph, S1%10000m1013hPa71%
25-Jun-2024 18:00Clear Sky32°C11 mph, S7%10000m1012hPa56%
25-Jun-2024 21:00Overcast Clouds33°C9 mph, S100%10000m1011hPa52%
26-Jun-2024 00:00Overcast Clouds33°C11 mph, SE92%10000m1009hPa51%
26-Jun-2024 03:00Clear Sky30°C11 mph, S8%10000m1010hPa62%
26-Jun-2024 06:00Scattered Clouds28°C11 mph, S46%10000m1011hPa69%
26-Jun-2024 09:00Scattered Clouds27°C11 mph, S32%10000m1011hPa74%
26-Jun-2024 12:00Broken Clouds26°C11 mph, S58%10000m1011hPa81%
26-Jun-2024 15:00Few Clouds31°C9 mph, SW11%10000m1012hPa63%
26-Jun-2024 18:00Few Clouds35°C9 mph, S11%10000m1011hPa46%
26-Jun-2024 21:00Few Clouds37°C9 mph, S11%10000m1010hPa42%
27-Jun-2024 00:00Clear Sky35°C9 mph, S3%10000m1008hPa44%
27-Jun-2024 03:00Clear Sky32°C7 mph, SE0%10000m1008hPa54%
27-Jun-2024 06:00Clear Sky30°C9 mph, S0%10000m1009hPa58%
27-Jun-2024 09:00Scattered Clouds28°C9 mph, SW37%10000m1009hPa66%
27-Jun-2024 12:00Broken Clouds27°C9 mph, SW70%10000m1010hPa73%
27-Jun-2024 15:00Overcast Clouds31°C9 mph, SW100%10000m1010hPa58%
27-Jun-2024 18:00Overcast Clouds36°C9 mph, S90%10000m1009hPa42%
27-Jun-2024 21:00Broken Clouds37°C11 mph, S65%10000m1007hPa36%
28-Jun-2024 00:00Broken Clouds35°C13 mph, SE83%10000m1006hPa42%
28-Jun-2024 03:00Overcast Clouds32°C11 mph, SE94%10000m1006hPa47%
28-Jun-2024 06:00Overcast Clouds29°C11 mph, S88%10000m1007hPa56%
28-Jun-2024 09:00Overcast Clouds27°C11 mph, S90%10000m1007hPa70%
28-Jun-2024 12:00Broken Clouds25°C11 mph, S56%10000m1008hPa78%
28-Jun-2024 15:00Broken Clouds29°C16 mph, S51%10000m1009hPa60%
28-Jun-2024 18:00Scattered Clouds34°C16 mph, S28%10000m1008hPa45%
28-Jun-2024 21:00Few Clouds36°C18 mph, S11%10000m1006hPa39%
29-Jun-2024 00:00Clear Sky33°C16 mph, S4%10000m1006hPa52%
29-Jun-2024 03:00Clear Sky30°C11 mph, S0%10000m1008hPa61%
29-Jun-2024 06:00Few Clouds28°C13 mph, S21%10000m1009hPa63%
29-Jun-2024 09:00Scattered Clouds27°C13 mph, S35%10000m1011hPa73%
29-Jun-2024 12:00Few Clouds26°C11 mph, S20%10000m1013hPa83%
29-Jun-2024 15:00Scattered Clouds29°C13 mph, S39%10000m1015hPa67%
29-Jun-2024 18:00Scattered Clouds35°C13 mph, S38%10000m1015hPa42%
29-Jun-2024 21:00Clear Sky37°C11 mph, S7%10000m1014hPa34%
30-Jun-2024 00:00Clear Sky36°C11 mph, SE8%10000m1013hPa36%
30-Jun-2024 03:00Few Clouds33°C7 mph, SE15%10000m1014hPa44%
30-Jun-2024 06:00Broken Clouds31°C9 mph, SE56%10000m1017hPa50%
30-Jun-2024 09:00Clear Sky28°C11 mph, SW0%10000m1017hPa69%
30-Jun-2024 12:00Clear Sky27°C9 mph, SW0%10000m1019hPa81%